Airfield :
LOGIN :

Register | Disclaimer

   EN    FR    IT 

 










Legend :    VFR   Marginal VFR   IFR   Intensive IFR   Very Intensive IFR
Visi :
Ceiling :
>= 8 km
>= 3000ft
5 to 8 km
1000 to 3000 ft
1500m to 5 km
500 to 1000 ft
800 to 1500m
200 to 500 ft
< 800m
< 200 ft
Symbols :   Thunderstorms  Fog  Heavy snow  Heavy precipitations  Wind > 20 kt
SIGMETs :     Misc.  Thunderstorms  Icing  Turbulence  Mountain Waves  Volcanic Ashes






- Airport Elevation : 291 ft
- IATA code : ORY


LFPO - Paris-Orly

CURRENT METAR :
  • 050700Z 24009KT 9999 FEW032CB SCT066 BKN100 03/02 Q1002 NOSIG

EXPIRED METARs :
  • 050630Z 24007KT 9999 FEW033 SCT066 BKN110 03/02 Q1002 NOSIG
  • 050600Z 24006KT 9999 FEW033 SCT053 BKN110 03/02 Q1002 NOSIG
  • 050530Z 24008KT 9999 FEW032 BKN083 03/01 Q1002 NOSIG
  • 050500Z 25008KT 9999 FEW039 SCT100 03/01 Q1002 NOSIG
  • 050430Z 24007KT 9999 FEW036 03/02 Q1002 NOSIG

TAF TAF LFPO
Valid from the 05 at 06:00 until the 06 at 12:00 UTC


050500Z 0506/0612 25010KT 9999 SCT030
TEMPO 0506/0523 4000 -SHRA BKN012 SCT020TCU
PROB30
TEMPO 0509/0517 2000 SHRAGS BKN014CB
BECMG 0512/0515 31010KT
ATIS : +33 1 49 75 65 80



MET'MAP, your aeronautical weather chart ! - Copyright ORBIFLY December 2007 - Disclaimer

ORBIFLY MET'MAP TEAM :

Programming & Development : Alexandra Zaïnal
Concept & original design : Baudouin d'Aumeries
Assistance for programming : Marc-Olivier Méhu
Technical & hardware support : Manuel Goepfert

Contact : metmap@orbifly.com




SOURCES & CREDITS :

   NOAA